地図

経路データ

SID SEASON NUMBER BASIN SUBBASIN NAME ISO_TIME NATURE LAT LON WMO_WIND WMO_PRES WMO_AGENCY TRACK_TYPE DIST2LAND LANDFALL IFLAG USA_AGENCY USA_ATCF_ID USA_LAT USA_LON USA_RECORD USA_STATUS USA_WIND USA_PRES USA_SSHS USA_R34_NE USA_R34_SE USA_R34_SW USA_R34_NW USA_R50_NE USA_R50_SE USA_R50_SW USA_R50_NW USA_R64_NE USA_R64_SE USA_R64_SW USA_R64_NW USA_POCI USA_ROCI USA_RMW USA_EYE TOKYO_LAT TOKYO_LON TOKYO_GRADE TOKYO_WIND TOKYO_PRES TOKYO_R50_DIR TOKYO_R50_LONG TOKYO_R50_SHORT TOKYO_R30_DIR TOKYO_R30_LONG TOKYO_R30_SHORT TOKYO_LAND CMA_LAT CMA_LON CMA_CAT CMA_WIND CMA_PRES HKO_LAT HKO_LON HKO_CAT HKO_WIND HKO_PRES NEWDELHI_LAT NEWDELHI_LON NEWDELHI_GRADE NEWDELHI_WIND NEWDELHI_PRES NEWDELHI_CI NEWDELHI_DP NEWDELHI_POCI REUNION_LAT REUNION_LON REUNION_TYPE REUNION_WIND REUNION_PRES REUNION_TNUM REUNION_CI REUNION_RMW REUNION_R34_NE REUNION_R34_SE REUNION_R34_SW REUNION_R34_NW REUNION_R50_NE REUNION_R50_SE REUNION_R50_SW REUNION_R50_NW REUNION_R64_NE REUNION_R64_SE REUNION_R64_SW REUNION_R64_NW BOM_LAT BOM_LON BOM_TYPE BOM_WIND BOM_PRES BOM_TNUM BOM_CI BOM_RMW BOM_R34_NE BOM_R34_SE BOM_R34_SW BOM_R34_NW BOM_R50_NE BOM_R50_SE BOM_R50_SW BOM_R50_NW BOM_R64_NE BOM_R64_SE BOM_R64_SW BOM_R64_NW BOM_ROCI BOM_POCI BOM_EYE BOM_POS_METHOD BOM_PRES_METHOD NADI_LAT NADI_LON NADI_CAT NADI_WIND NADI_PRES WELLINGTON_LAT WELLINGTON_LON WELLINGTON_WIND WELLINGTON_PRES DS824_LAT DS824_LON DS824_STAGE DS824_WIND DS824_PRES TD9636_LAT TD9636_LON TD9636_STAGE TD9636_WIND TD9636_PRES TD9635_LAT TD9635_LON TD9635_WIND TD9635_PRES TD9635_ROCI NEUMANN_LAT NEUMANN_LON NEUMANN_CLASS NEUMANN_WIND NEUMANN_PRES MLC_LAT MLC_LON MLC_CLASS MLC_WIND MLC_PRES USA_GUST BOM_GUST BOM_GUST_PER REUNION_GUST REUNION_GUST_PER USA_SEAHGT USA_SEARAD_NE USA_SEARAD_SE USA_SEARAD_SW USA_SEARAD_NW STORM_SPEED STORM_DIR
1948263N17086 1948 64 NI BB NOT_NAMED 1948-09-18 18:00:00 TS 16.8000 86.0000 main 261 254 O________O____ jtwc_io IO121948 16.8000 86.0000 -1 16.8000 86.0000 TC 2 301
1948263N17086 1948 64 NI BB NOT_NAMED 1948-09-18 21:00:00 TS 16.8500 85.9150 main 246 238 P________P____ IO121948 16.8500 85.9150 -1 16.8500 85.9150 TC 2 298
1948263N17086 1948 64 NI BB NOT_NAMED 1948-09-19 00:00:00 TS 16.9000 85.8000 main 238 215 O________O____ jtwc_io IO121948 16.9000 85.8000 -1 16.9000 85.8000 TC 25 3 291
1948263N17086 1948 64 NI BB NOT_NAMED 1948-09-19 03:00:00 TS 16.9555 85.6267 main 215 200 P________PO___ IO121948 16.9500 85.6300 -1 16.9500 85.6300 TC 25 17.0000 85.6000 1 4 285
1948263N17086 1948 64 NI BB NOT_NAMED 1948-09-19 06:00:00 TS 17.0082 85.3875 main 200 171 O________OP___ jtwc_io IO121948 17.0000 85.4000 -1 17.0000 85.4000 TC 25 17.0409 85.3375 1 5 281
1948263N17086 1948 64 NI BB NOT_NAMED 1948-09-19 09:00:00 TS 17.0542 85.0945 main 171 153 P________PP___ IO121948 17.0426 85.1000 -1 17.0426 85.1000 TC 25 17.0853 85.0800 1 6 281
1948263N17086 1948 64 NI BB NOT_NAMED 1948-09-19 12:00:00 TS 17.1123 84.8108 main 153 133 O________OP___ jtwc_io IO121948 17.1000 84.8000 -1 17.1000 84.8000 TC 25 17.1370 84.8325 1 5 287
1948263N17086 1948 64 NI BB NOT_NAMED 1948-09-19 15:00:00 TS 17.2000 84.5900 main 133 113 P________PO___ IO121948 17.1999 84.5850 -1 17.1999 84.5850 TC 25 17.2000 84.6000 1 4 294
1948263N17086 1948 64 NI BB NOT_NAMED 1948-09-19 18:00:00 TS 17.2920 84.3957 main 113 92 O________OP___ jtwc_io IO121948 17.3000 84.4000 -1 17.3000 84.4000 TC 25 17.2759 84.3872 1 4 292
1948263N17086 1948 64 NI BB NOT_NAMED 1948-09-19 21:00:00 TS 17.3575 84.1892 main 92 77 P________PP___ IO121948 17.3575 84.1850 -1 17.3575 84.1850 TC 25 17.3574 84.1976 1 4 288
1948263N17086 1948 64 NI BB NOT_NAMED 1948-09-20 00:00:00 TS 17.4118 84.0114 main 77 61 O________OP___ jtwc_io IO121948 17.4000 84.0000 -1 17.4000 84.0000 TC 25 17.4353 84.0341 1 3 291
1948263N17086 1948 64 NI BB NOT_NAMED 1948-09-20 03:00:00 TS 17.4667 83.8850 main 61 54 P________PO___ IO121948 17.4500 83.8775 -1 17.4500 83.8775 TC 25 17.5000 83.9000 1 2 296
1948263N17086 1948 64 NI BB NOT_NAMED 1948-09-20 06:00:00 TS 17.5131 83.7974 main 54 38 O________OP___ jtwc_io IO121948 17.5000 83.8000 -1 17.5000 83.8000 TC 25 17.5393 83.7921 1 2 302
1948263N17086 1948 64 NI BB NOT_NAMED 1948-09-20 09:00:00 TS 17.5600 83.7325 main 38 38 P________PP___ IO121948 17.5575 83.7425 -1 17.5575 83.7425 TC 25 17.5649 83.7124 1 1 308
1948263N17086 1948 64 NI BB NOT_NAMED 1948-09-20 12:00:00 TS 17.5944 83.6838 main 38 30 O________OP___ jtwc_io IO121948 17.6000 83.7000 -1 17.6000 83.7000 TC 25 17.5831 83.6515 1 1 292
1948263N17086 1948 64 NI BB NOT_NAMED 1948-09-20 15:00:00 TS 17.6000 83.6333 main 30 30 P________PO___ IO121948 17.6000 83.6500 -1 17.6000 83.6500 TC 25 17.6000 83.6000 1 1 279
1948263N17086 1948 64 NI BB NOT_NAMED 1948-09-20 18:00:00 TS 17.6068 83.6039 main 30 30 O________OP___ jtwc_io IO121948 17.6000 83.6000 -1 17.6000 83.6000 TC 25 17.6205 83.6117 1 1 328
1948263N17086 1948 64 NI BB NOT_NAMED 1948-09-20 21:00:00 TS 17.6472 83.5883 main 30 15 P________PP___ IO121948 17.6500 83.5725 -1 17.6500 83.5725 TC 25 17.6417 83.6198 1 1 317
1948263N17086 1948 64 NI BB NOT_NAMED 1948-09-21 00:00:00 TS 17.6890 83.5226 main 15 10 O________OP___ jtwc_io IO121948 17.7000 83.5000 -1 17.7000 83.5000 TC 25 17.6671 83.5679 1 2 285
1948263N17086 1948 64 NI BB NOT_NAMED 1948-09-21 03:00:00 TS 17.6998 83.3833 main 10 0 P________PO___ IO121948 17.6998 83.3749 -1 17.6998 83.3749 TC 25 17.7000 83.4000 1 4 273
1948263N17086 1948 64 NI BB NOT_NAMED 1948-09-21 06:00:00 TS 17.7145 83.0770 main 0 0 O________OP___ jtwc_io IO121948 17.7000 83.1000 -1 17.7000 83.1000 TC 25 17.7436 83.0311 1 8 274
1948263N17086 1948 64 NI BB NOT_NAMED 1948-09-21 09:00:00 TS 17.7598 82.5743 main 0 0 P________PP___ IO121948 17.7428 82.5876 -1 17.7428 82.5876 TC 25 17.7937 82.5477 1 10 276
1948263N17086 1948 64 NI BB NOT_NAMED 1948-09-21 12:00:00 TS 17.8156 82.0051 main 0 0 O________OP___ jtwc_io IO121948 17.8000 82.0000 -1 17.8000 82.0000 TC 25 17.8468 82.0154 1 10 276
1948263N17086 1948 64 NI BB NOT_NAMED 1948-09-21 15:00:00 TS 17.8666 81.5083 main 0 0 P________PO___ IO121948 17.8499 81.5125 -1 17.8499 81.5125 TC 25 17.9000 81.5000 1 8 277
1948263N17086 1948 64 NI BB NOT_NAMED 1948-09-21 18:00:00 TS 17.9213 81.1299 main 0 0 O________OP___ jtwc_io IO121948 17.9000 81.1000 -1 17.9000 81.1000 TC 25 17.9639 81.1897 1 6 280
1948263N17086 1948 64 NI BB NOT_NAMED 1948-09-21 21:00:00 TS 17.9751 80.8508 main 0 0 P________PP___ IO121948 17.9495 80.8299 -1 17.9495 80.8299 TC 25 18.0263 80.8925 1 6 280
1948263N17086 1948 64 NI BB NOT_NAMED 1948-09-22 00:00:00 TS 18.0252 80.5081 main 0 0 O________OP___ jtwc_io IO121948 18.0000 80.5000 -1 18.0000 80.5000 TC 25 18.0757 80.5242 1 8 277
1948263N17086 1948 64 NI BB NOT_NAMED 1948-09-22 03:00:00 TS 18.0814 79.9702 main 0 0 P________PO___ IO121948 18.0721 79.9552 -1 18.0721 79.9552 TC 25 18.1000 80.0000 1 12 273
1948263N17086 1948 64 NI BB NOT_NAMED 1948-09-22 06:00:00 TS 18.0855 79.1992 main 0 0 O________OP___ jtwc_io IO121948 18.1000 79.2000 -1 18.1000 79.2000 TC 25 18.0565 79.1975 1 16 267
1948263N17086 1948 64 NI BB NOT_NAMED 1948-09-22 09:00:00 TS 17.9961 78.2479 main 0 0 P________PP___ IO121948 18.0002 78.2518 -1 18.0002 78.2518 TC 25 17.9880 78.2400 1 19 265
1948263N17086 1948 64 NI AS NOT_NAMED 1948-09-22 12:00:00 TS 17.9083 77.2042 main 0 0 O________OP___ jtwc_io IO121948 17.9000 77.2000 -1 17.9000 77.2000 TC 25 17.9250 77.2128 1 20 268
1948263N17086 1948 64 NI AS NOT_NAMED 1948-09-22 15:00:00 TS 17.9131 76.1951 main 0 0 P________PO___ IO121948 17.9196 76.1927 -1 17.9196 76.1927 TC 25 17.9000 76.2000 1 19 272
1948263N17086 1948 64 NI AS NOT_NAMED 1948-09-22 18:00:00 TS 17.9832 75.2017 main 0 0 O________OP___ jtwc_io IO121948 18.0000 75.2000 -1 18.0000 75.2000 TC 25 17.9496 75.2050 1 19 275
1948263N17086 1948 64 NI AS NOT_NAMED 1948-09-22 21:00:00 TS 18.0758 74.1867 main 0 0 P________PP___ IO121948 18.0929 74.1527 -1 18.0929 74.1527 TC 30 18.0416 74.2546 1 18 277
1948263N17086 1948 64 NI AS NOT_NAMED 1948-09-23 00:00:00 TS 18.1875 73.3422 main 0 0 O________OP___ jtwc_io IO121948 18.2000 73.3000 -1 18.2000 73.3000 TC 35 18.1625 73.4267 1 13 280
1948263N17086 1948 64 NI AS NOT_NAMED 1948-09-23 03:00:00 TS 18.2945 72.8149 main 10 10 P________PO___ IO121948 18.2918 72.8224 -1 18.2918 72.8224 TC 35 18.3000 72.8000 2 8 287
1948263N17086 1948 64 NI AS NOT_NAMED 1948-09-23 06:00:00 TS 18.4111 72.5540 main 31 31 O________OP___ jtwc_io IO121948 18.4000 72.6000 -1 18.4000 72.6000 TC 35 18.4332 72.4621 2 5 305
1948263N17086 1948 64 NI AS NOT_NAMED 1948-09-23 09:00:00 TS 18.5557 72.4164 main 53 47 P________PP___ IO121948 18.5424 72.4624 -1 18.5424 72.4624 TC 50 18.5823 72.3244 2 4 330
1948263N17086 1948 64 NI AS NOT_NAMED 1948-09-23 12:00:00 TS 18.7135 72.3665 main 47 43 O________OP___ jtwc_io IO121948 18.7000 72.4000 -1 18.7000 72.4000 TC 65 18.7404 72.2996 2 3 340
1948263N17086 1948 64 NI AS NOT_NAMED 1948-09-23 15:00:00 TS 18.8667 72.3000 main 52 52 P________PO___ IO121948 18.8500 72.3000 -1 18.8500 72.3000 TC 65 18.9000 72.3000 4 3 333
1948263N17086 1948 64 NI AS NOT_NAMED 1948-09-23 18:00:00 TS 19.0098 72.2056 main 63 63 O________OP___ jtwc_io IO121948 19.0000 72.2000 -1 19.0000 72.2000 TC 65 19.0295 72.2168 4 3 329
1948263N17086 1948 64 NI AS NOT_NAMED 1948-09-23 21:00:00 TS 19.1491 72.1172 main 73 71 P________PP___ IO121948 19.1425 72.1074 -1 19.1425 72.1074 TC 65 19.1622 72.1368 4 3 328
1948263N17086 1948 64 NI AS NOT_NAMED 1948-09-24 00:00:00 TS 19.3046 72.0128 main 76 74 O________OP___ jtwc_io IO121948 19.3000 72.0000 -1 19.3000 72.0000 TC 65 19.3138 72.0385 4 4 326
1948263N17086 1948 64 NI AS NOT_NAMED 1948-09-24 03:00:00 TS 19.4850 71.8816 main 83 83 P________PO___ IO121948 19.4775 71.8724 -1 19.4775 71.8724 TC 65 19.5000 71.9000 4 5 324
1948263N17086 1948 64 NI AS NOT_NAMED 1948-09-24 06:00:00 TS 19.7171 71.7019 main 104 98 O________OP___ jtwc_io IO121948 19.7000 71.7000 -1 19.7000 71.7000 TC 65 19.7512 71.7056 4 7 324
1948263N17086 1948 64 NI AS NOT_NAMED 1948-09-24 09:00:00 TS 20.0066 71.4710 main 98 56 P________PP___ IO121948 19.9925 71.4725 -1 19.9925 71.4725 TC 65 20.0350 71.4678 4 8 321
1948263N17086 1948 64 NI AS NOT_NAMED 1948-09-24 12:00:00 TS 20.3087 71.1987 main 56 15 O________OP___ jtwc_io IO121948 20.3000 71.2000 -1 20.3000 71.2000 TC 65 20.3262 71.1961 4 8 317
1948263N17086 1948 64 NI AS NOT_NAMED 1948-09-24 15:00:00 TS 20.5716 70.9149 main 15 0 P________PO___ IO121948 20.5574 70.9223 -1 20.5574 70.9223 TC 65 20.6000 70.9000 4 8 312
1948263N17086 1948 64 NI AS NOT_NAMED 1948-09-24 18:00:00 TS 20.8168 70.5881 main 10 0 O________OP___ jtwc_io IO121948 20.8000 70.6000 -1 20.8000 70.6000 TC 65 20.8503 70.5644 4 8 307
1948263N17086 1948 64 NI AS NOT_NAMED 1948-09-24 21:00:00 TS 21.0736 70.1895 main 0 0 P________PP___ IO121948 21.0727 70.1777 -1 21.0727 70.1777 TC 65 21.0755 70.2130 4 9 303
1948263N17086 1948 64 NI AS NOT_NAMED 1948-09-25 00:00:00 TS 21.2876 69.8267 main 15 15 O________OP___ jtwc_io IO121948 21.3000 69.8000 -1 21.3000 69.8000 TC 65 21.2629 69.8801 4 6 303
1948263N17086 1948 64 NI AS NOT_NAMED 1948-09-25 03:00:00 TS 21.4249 69.6082 main 23 15 P________PO___ IO121948 21.4373 69.6123 -1 21.4373 69.6123 TC 65 21.4000 69.6000 4 4 302
1948263N17086 1948 64 NI AS NOT_NAMED 1948-09-25 06:00:00 TS 21.4930 69.4723 main 23 23 O________OP___ jtwc_io IO121948 21.5000 69.5000 -1 21.5000 69.5000 TC 65 21.4790 69.4170 4 3 289
1948263N17086 1948 64 NI AS NOT_NAMED 1948-09-25 09:00:00 TS 21.5132 69.3248 main 38 38 P________PP___ IO121948 21.5150 69.3425 -1 21.5150 69.3425 TC 65 21.5095 69.2894 4 3 272
1948263N17086 1948 64 NI AS NOT_NAMED 1948-09-25 12:00:00 TS 21.5034 69.1974 main 45 45 O________OP___ jtwc_io IO121948 21.5000 69.2000 -1 21.5000 69.2000 TC 65 21.5103 69.1922 4 2 266
1948263N17086 1948 64 NI AS NOT_NAMED 1948-09-25 15:00:00 TS 21.5000 69.1000 main 53 53 P________PO___ IO121948 21.5000 69.1000 -1 21.5000 69.1000 TC 65 21.5000 69.1000 4 2 270
1948263N17086 1948 64 NI AS NOT_NAMED 1948-09-25 18:00:00 TS 21.5024 68.9917 main 60 60 O________OP___ jtwc_io IO121948 21.5000 69.0000 -1 21.5000 69.0000 TC 65 21.5072 68.9750 4 2 271
1948263N17086 1948 64 NI AS NOT_NAMED 1948-09-25 21:00:00 TS 21.5025 68.8500 main 76 76 P________PP___ IO121948 21.5000 68.8500 -1 21.5000 68.8500 TC 65 21.5075 68.8500 4 3 270
1948263N17086 1948 64 NI AS NOT_NAMED 1948-09-26 00:00:00 TS 21.5013 68.7083 main 83 83 O________OP___ jtwc_io IO121948 21.5000 68.7000 -1 21.5000 68.7000 TC 65 21.5040 68.7250 4 2 269
1948263N17086 1948 64 NI AS NOT_NAMED 1948-09-26 03:00:00 TS 21.5000 68.6000 main 91 91 P________PO___ IO121948 21.5000 68.6000 -1 21.5000 68.6000 TC 65 21.5000 68.6000 4 2 270
1948263N17086 1948 64 NI AS NOT_NAMED 1948-09-26 06:00:00 TS 21.5000 68.4917 main 98 98 O________OP___ jtwc_io IO121948 21.5000 68.5000 -1 21.5000 68.5000 TC 65 21.5000 68.4750 4 2 270
1948263N17086 1948 64 NI AS NOT_NAMED 1948-09-26 09:00:00 TS 21.5000 68.3500 main 103 108 P________PP___ IO121948 21.5000 68.3500 -1 21.5000 68.3500 TC 65 21.5000 68.3500 4 3 270
1948263N17086 1948 64 NI AS NOT_NAMED 1948-09-26 12:00:00 TS 21.5000 68.2083 main 114 114 O________OP___ jtwc_io IO121948 21.5000 68.2000 -1 21.5000 68.2000 TC 65 21.5000 68.2250 4 2 270
1948263N17086 1948 64 NI AS NOT_NAMED 1948-09-26 15:00:00 TS 21.5000 68.1000 main 121 121 P________PO___ IO121948 21.5000 68.1000 -1 21.5000 68.1000 TC 65 21.5000 68.1000 4 2 270
1948263N17086 1948 64 NI AS NOT_NAMED 1948-09-26 18:00:00 TS 21.5000 67.9917 main 128 128 O________OP___ jtwc_io IO121948 21.5000 68.0000 -1 21.5000 68.0000 TC 65 21.5000 67.9750 4 2 270
1948263N17086 1948 64 NI AS NOT_NAMED 1948-09-26 21:00:00 TS 21.5000 67.8500 main 136 144 P________PP___ IO121948 21.5000 67.8500 -1 21.5000 67.8500 TC 65 21.5000 67.8500 4 3 270
1948263N17086 1948 64 NI AS NOT_NAMED 1948-09-27 00:00:00 TS 21.5000 67.7083 main 152 152 O________OP___ jtwc_io IO121948 21.5000 67.7000 -1 21.5000 67.7000 TC 65 21.5000 67.7250 4 2 270
1948263N17086 1948 64 NI AS NOT_NAMED 1948-09-27 03:00:00 TS 21.5000 67.6000 main 161 161 P________PO___ IO121948 21.5000 67.6000 -1 21.5000 67.6000 TC 65 21.5000 67.6000 4 2 270
1948263N17086 1948 64 NI AS NOT_NAMED 1948-09-27 06:00:00 TS 21.5000 67.4917 main 169 169 O________OP___ jtwc_io IO121948 21.5000 67.5000 -1 21.5000 67.5000 TC 65 21.5000 67.4750 4 2 270
1948263N17086 1948 64 NI AS NOT_NAMED 1948-09-27 09:00:00 TS 21.5000 67.3500 main 178 187 P________PP___ IO121948 21.5000 67.3500 -1 21.5000 67.3500 TC 65 21.5000 67.3500 4 3 270
1948263N17086 1948 64 NI AS NOT_NAMED 1948-09-27 12:00:00 TS 21.5000 67.2083 main 196 196 O________OP___ jtwc_io IO121948 21.5000 67.2000 -1 21.5000 67.2000 TC 65 21.5000 67.2250 4 2 270
1948263N17086 1948 64 NI AS NOT_NAMED 1948-09-27 15:00:00 TS 21.5000 67.1000 main 206 206 P________PO___ IO121948 21.5000 67.1000 -1 21.5000 67.1000 TC 50 21.5000 67.1000 4 2 270
1948263N17086 1948 64 NI AS NOT_NAMED 1948-09-27 18:00:00 TS 21.5000 66.9957 main 215 215 O________OP___ jtwc_io IO121948 21.5000 67.0000 -1 21.5000 67.0000 TC 35 21.4999 66.9872 4 2 270
1948263N17086 1948 64 NI AS NOT_NAMED 1948-09-27 21:00:00 TS 21.4999 66.8625 main 224 224 P________PP___ IO121948 21.5000 66.8575 -1 21.5000 66.8575 TC 35 21.4998 66.8725 4 3 270
1948263N17086 1948 64 NI AS NOT_NAMED 1948-09-28 00:00:00 TS 21.5000 66.7155 main 243 243 O________OP___ jtwc_io IO121948 21.5000 66.7000 -1 21.5000 66.7000 TC 35 21.4999 66.7466 4 3 270
1948263N17086 1948 64 NI AS NOT_NAMED 1948-09-28 03:00:00 TS 21.5000 66.5717 main 253 253 P________PO___ IO121948 21.5000 66.5575 -1 21.5000 66.5575 TC 35 21.5000 66.6000 3 3 270
1948263N17086 1948 64 NI AS NOT_NAMED 1948-09-28 06:00:00 TS 21.5000 66.4058 main 272 272 O________OP___ jtwc_io IO121948 21.5000 66.4000 -1 21.5000 66.4000 TC 35 21.5001 66.4175 3 3 270
1948263N17086 1948 64 NI AS NOT_NAMED 1948-09-28 09:00:00 TS 21.5000 66.2100 main 292 292 P________PP___ IO121948 21.5000 66.2075 -1 21.5000 66.2075 TC 35 21.5001 66.2150 3 4 270
1948263N17086 1948 64 NI AS NOT_NAMED 1948-09-28 12:00:00 TS 21.5000 66.0017 main 305 305 O________OP___ jtwc_io IO121948 21.5000 66.0000 -1 21.5000 66.0000 TC 35 21.5001 66.0050 3 4 270
1948263N17086 1948 64 NI AS NOT_NAMED 1948-09-28 15:00:00 TS 21.5000 65.7950 main 316 316 P________PO___ IO121948 21.5000 65.7925 -1 21.5000 65.7925 TC 35 21.5000 65.8000 3 4 270
1948263N17086 1948 64 NI AS NOT_NAMED 1948-09-28 18:00:00 TS 21.4999 65.6086 main 328 328 O________OP___ jtwc_io IO121948 21.5000 65.6000 -1 21.5000 65.6000 TC 35 21.4998 65.6259 3 3 270
1948263N17086 1948 64 NI AS NOT_NAMED 1948-09-28 21:00:00 TS 21.4999 65.4525 main 335 335 P________PP___ IO121948 21.4999 65.4500 -1 21.4999 65.4500 TC 35 21.4998 65.4575 3 3 270
1948263N17086 1948 64 NI AS NOT_NAMED 1948-09-29 00:00:00 TS 21.4999 65.2951 main 348 348 O________OP___ jtwc_io IO121948 21.5000 65.3000 -1 21.5000 65.3000 TC 35 21.4998 65.2853 3 3 270
1948263N17086 1948 64 NI AS NOT_NAMED 1948-09-29 03:00:00 TS 21.5000 65.1100 main 363 363 P________PO___ IO121948 21.5000 65.1150 -1 21.5000 65.1150 TC 35 21.5000 65.1000 3 4 270
1948263N17086 1948 64 NI AS NOT_NAMED 1948-09-29 06:00:00 TS 21.5000 64.8978 main 377 377 O________OP___ jtwc_io IO121948 21.5000 64.9000 -1 21.5000 64.9000 TC 35 21.5000 64.8934 3 4 270
1948263N17086 1948 64 NI AS NOT_NAMED 1948-09-29 09:00:00 TS 21.5000 64.6575 main 392 392 P________PP___ IO121948 21.5000 64.6500 -1 21.5000 64.6500 TC 35 21.4999 64.6725 3 5 270
1948263N17086 1948 64 NI AS NOT_NAMED 1948-09-29 12:00:00 TS 21.5000 64.4134 main 413 413 O________OP___ jtwc_io IO121948 21.5000 64.4000 -1 21.5000 64.4000 TC 35 21.4999 64.4403 3 4 270
1948263N17086 1948 64 NI AS NOT_NAMED 1948-09-29 15:00:00 TS 21.4999 64.2000 main 414 414 P________PO___ IO121948 21.4999 64.2000 -1 21.4999 64.2000 TC 35 21.5000 64.2000 3 4 270
1948263N17086 1948 64 NI AS NOT_NAMED 1948-09-29 18:00:00 TS 21.5000 63.9857 main 415 414 O________OP___ jtwc_io IO121948 21.5000 64.0000 -1 21.5000 64.0000 TC 35 21.4999 63.9572 3 4 270
1948263N17086 1948 64 NI AS NOT_NAMED 1948-09-29 21:00:00 TS 21.5000 63.7408 main 409 389 P________PP___ IO121948 21.5000 63.7575 -1 21.5000 63.7575 TC 35 21.4999 63.7075 3 5 270
1948263N17086 1948 64 NI AS NOT_NAMED 1948-09-30 00:00:00 TS 21.5000 63.4847 main 389 359 O________OP___ jtwc_io IO121948 21.5000 63.5000 -1 21.5000 63.5000 TC 35 21.4999 63.4541 3 5 270
1948263N17086 1948 64 NI AS NOT_NAMED 1948-09-30 03:00:00 TS 21.5000 63.2333 main 359 339 P________PO___ IO121948 21.5000 63.2500 -1 21.5000 63.2500 TC 35 21.5000 63.2000 3 5 270
1948263N17086 1948 64 NI AS NOT_NAMED 1948-09-30 06:00:00 TS 21.5000 62.9833 main 339 309 O________OP___ jtwc_io IO121948 21.5000 63.0000 -1 21.5000 63.0000 TC 35 21.4999 62.9500 3 5 270
1948263N17086 1948 64 NI AS NOT_NAMED 1948-09-30 09:00:00 TS 21.4999 62.7333 main 309 289 P________PP___ IO121948 21.5000 62.7500 -1 21.5000 62.7500 TC 35 21.4999 62.7000 3 5 270
1948263N17086 1948 64 NI AS NOT_NAMED 1948-09-30 12:00:00 TS 21.5000 62.4833 main 289 259 O________OP___ jtwc_io IO121948 21.5000 62.5000 -1 21.5000 62.5000 TC 35 21.4999 62.4500 3 5 270
1948263N17086 1948 64 NI AS NOT_NAMED 1948-09-30 15:00:00 TS 21.5000 62.2333 main 259 240 P________PO___ IO121948 21.5000 62.2500 -1 21.5000 62.2500 TC 35 21.5000 62.2000 3 5 270
1948263N17086 1948 64 NI AS NOT_NAMED 1948-09-30 18:00:00 TS 21.5001 61.9800 main 240 211 O________OP___ jtwc_io IO121948 21.5000 62.0000 -1 21.5000 62.0000 TC 35 21.5002 61.9500 3 5 270
1948263N17086 1948 64 NI AS NOT_NAMED 1948-09-30 21:00:00 TS 21.5002 61.7286 main 211 192 P________PP___ IO121948 21.5001 61.7500 -1 21.5001 61.7500 TC 30 21.5003 61.7000 3 5 270
1948263N17086 1948 64 NI AS NOT_NAMED 1948-10-01 00:00:00 TS 21.5001 61.4750 main 192 164 O________OP___ jtwc_io IO121948 21.5000 61.5000 -1 21.5000 61.5000 TC 25 21.5003 61.4500 3 5 270
1948263N17086 1948 64 NI AS NOT_NAMED 1948-10-01 03:00:00 NR 21.5000 61.2000 main 164 __________O___ IO121948 -1 TC 21.5000 61.2000 1 5 270

IBTrACS Databaseについて

本データベースは、米国NOAAが公開する1842年以降の世界の熱帯低気圧のベストトラックデータアーカイブInternational Best Track Archive for Climate Stewardship (IBTrACS)を、ウェブで閲覧しやすい形式に変換したものです。

最終更新日:2021-12-03